PWSweather.com
Personal Weather Stations
Station Observations
KVAGLENALL
West Henrico, Glen Allen, VA 23060-6503

West HenricoGlen Allen, VA 23060-6503

Lat: 37.6554, Lon: -77.5693

Elevation: 273

Station Type: Davis Vantage Pro II

www.glenallenweather.com

High Low Average
Temperature 91.9°F33.3°C 75.2°F24.0°C 82.2°F27.9°C
Dew Point 74.4°F23.6°C 68.4°F20.2°C 71.5°F21.9°C
Winds 14.1 mph 22.7 kmh 0.1 mph 0.2 kmh 4.0 mph S6.4 kmh S
Wind Gusts 17.2 mph27.7 kmh 4.1 mph6.6 kmh 9.0 mph14.5 kmh
Humidity 83% 54% 71%
Pressure 30.00 in1015.9 mb 29.88 in1011.9 mb -
Precipitation 0.00 in0.0 mm - -
Hour Temp Dew Point Humidity Winds Wind Gusts Pressure Precip Precip Rate Daily Precip Total
12:00 AM 76.8°F24.9°C 67.1°F19.5°C 72% 2.0 mph S3.2 kmh S 4.1 mph6.6 kmh 30.00 in1015.9 mb 0.00 in0.0 mm 0.00 in0.0 mm 0.00 in0.0 mm
12:15 AM 76.5°F24.7°C 67.6°F19.8°C 74% 3.0 mph SSW4.8 kmh SSW 6.1 mph9.8 kmh 30.00 in1015.9 mb 0.00 in0.0 mm 0.00 in0.0 mm 0.00 in0.0 mm
12:30 AM 76.3°F24.6°C 67.8°F19.9°C 75% 1.0 mph S1.6 kmh S 6.1 mph9.8 kmh 29.99 in1015.6 mb 0.00 in0.0 mm 0.00 in0.0 mm 0.00 in0.0 mm
12:45 AM 76.2°F24.6°C 68.1°F20.1°C 76% 7.1 mph S11.4 kmh S 7.1 mph11.4 kmh 30.00 in1015.9 mb 0.00 in0.0 mm 0.00 in0.0 mm 0.00 in0.0 mm
01:00 AM 76.1°F24.5°C 68.4°F20.2°C 77% 5.1 mph SSE8.2 kmh SSE 10.1 mph16.3 kmh 30.00 in1015.9 mb 0.00 in0.0 mm 0.00 in0.0 mm 0.00 in0.0 mm
01:15 AM 76.0°F24.4°C 68.6°F20.3°C 78% 4.1 mph SSW6.6 kmh SSW 10.1 mph16.3 kmh 29.99 in1015.6 mb 0.00 in0.0 mm 0.00 in0.0 mm 0.00 in0.0 mm
01:30 AM 76.0°F24.4°C 68.6°F20.3°C 78% 2.0 mph SE3.2 kmh SE 5.1 mph8.2 kmh 29.99 in1015.6 mb 0.00 in0.0 mm 0.00 in0.0 mm 0.00 in0.0 mm
01:45 AM 75.8°F24.3°C 68.8°F20.4°C 79% 3.0 mph S4.8 kmh S 6.1 mph9.8 kmh 29.98 in1015.2 mb 0.00 in0.0 mm 0.00 in0.0 mm 0.00 in0.0 mm
02:00 AM 75.8°F24.3°C 69.2°F20.7°C 80% 7.1 mph S11.4 kmh S 7.1 mph11.4 kmh 29.97 in1014.9 mb 0.00 in0.0 mm 0.00 in0.0 mm 0.00 in0.0 mm
02:15 AM 75.7°F24.3°C 69.1°F20.6°C 80% 3.0 mph SE4.8 kmh SE 7.1 mph11.4 kmh 29.97 in1014.9 mb 0.00 in0.0 mm 0.00 in0.0 mm 0.00 in0.0 mm
02:30 AM 75.7°F24.3°C 69.1°F20.6°C 80% 10.1 mph SSW16.3 kmh SSW 10.1 mph16.3 kmh 29.97 in1014.9 mb 0.00 in0.0 mm 0.00 in0.0 mm 0.00 in0.0 mm
02:45 AM 75.6°F24.2°C 69.3°F20.7°C 81% 4.1 mph S6.6 kmh S 5.1 mph8.2 kmh 29.96 in1014.6 mb 0.00 in0.0 mm 0.00 in0.0 mm 0.00 in0.0 mm
03:00 AM 75.5°F24.2°C 69.2°F20.7°C 81% 7.1 mph SSW11.4 kmh SSW 11.2 mph18.0 kmh 29.96 in1014.6 mb 0.00 in0.0 mm 0.00 in0.0 mm 0.00 in0.0 mm
03:15 AM 75.4°F24.1°C 69.1°F20.6°C 81% 5.1 mph SSW8.2 kmh SSW 11.2 mph18.0 kmh 29.95 in1014.2 mb 0.00 in0.0 mm 0.00 in0.0 mm 0.00 in0.0 mm
03:30 AM 75.3°F24.1°C 69.4°F20.8°C 82% 6.1 mph S9.8 kmh S 11.2 mph18.0 kmh 29.94 in1013.9 mb 0.00 in0.0 mm 0.00 in0.0 mm 0.00 in0.0 mm
03:45 AM 75.2°F24.0°C 69.3°F20.7°C 82% 0.1 mph SSE0.2 kmh SSE 5.1 mph8.2 kmh 29.95 in1014.2 mb 0.00 in0.0 mm 0.00 in0.0 mm 0.00 in0.0 mm
04:00 AM 75.3°F24.1°C 69.4°F20.8°C 82% 2.0 mph SW3.2 kmh SW 9.1 mph14.6 kmh 29.94 in1013.9 mb 0.00 in0.0 mm 0.00 in0.0 mm 0.00 in0.0 mm
04:15 AM 75.3°F24.1°C 69.4°F20.8°C 82% 0.1 mph S0.2 kmh S 6.1 mph9.8 kmh 29.95 in1014.2 mb 0.00 in0.0 mm 0.00 in0.0 mm 0.00 in0.0 mm
04:30 AM 75.3°F24.1°C 69.8°F21.0°C 83% 6.1 mph S9.8 kmh S 11.2 mph18.0 kmh 29.95 in1014.2 mb 0.00 in0.0 mm 0.00 in0.0 mm 0.00 in0.0 mm
04:45 AM 75.3°F24.1°C 69.8°F21.0°C 83% 3.0 mph S4.8 kmh S 4.1 mph6.6 kmh 29.94 in1013.9 mb 0.00 in0.0 mm 0.00 in0.0 mm 0.00 in0.0 mm
05:00 AM 75.3°F24.1°C 69.8°F21.0°C 83% 2.0 mph S3.2 kmh S 7.1 mph11.4 kmh 29.95 in1014.2 mb 0.00 in0.0 mm 0.00 in0.0 mm 0.00 in0.0 mm
05:15 AM 75.6°F24.2°C 70.1°F21.2°C 83% 5.1 mph SSW8.2 kmh SSW 11.2 mph18.0 kmh 29.95 in1014.2 mb 0.00 in0.0 mm 0.00 in0.0 mm 0.00 in0.0 mm
05:30 AM 75.6°F24.2°C 70.1°F21.2°C 83% 1.0 mph SSE1.6 kmh SSE 5.1 mph8.2 kmh 29.95 in1014.2 mb 0.00 in0.0 mm 0.00 in0.0 mm 0.00 in0.0 mm
05:45 AM 75.6°F24.2°C 70.1°F21.2°C 83% 2.0 mph S3.2 kmh S 7.1 mph11.4 kmh 29.96 in1014.6 mb 0.00 in0.0 mm 0.00 in0.0 mm 0.00 in0.0 mm
06:00 AM 75.6°F24.2°C 70.1°F21.2°C 83% 4.1 mph S6.6 kmh S 6.1 mph9.8 kmh 29.96 in1014.6 mb 0.00 in0.0 mm 0.00 in0.0 mm 0.00 in0.0 mm
06:15 AM 75.6°F24.2°C 70.1°F21.2°C 83% 3.0 mph S4.8 kmh S 6.1 mph9.8 kmh 29.95 in1014.2 mb 0.00 in0.0 mm 0.00 in0.0 mm 0.00 in0.0 mm
06:30 AM 75.6°F24.2°C 70.1°F21.2°C 83% 3.0 mph S4.8 kmh S 5.1 mph8.2 kmh 29.96 in1014.6 mb 0.00 in0.0 mm 0.00 in0.0 mm 0.00 in0.0 mm
06:45 AM 75.8°F24.3°C 69.9°F21.1°C 82% 3.0 mph SW4.8 kmh SW 5.1 mph8.2 kmh 29.97 in1014.9 mb 0.00 in0.0 mm 0.00 in0.0 mm 0.00 in0.0 mm
07:00 AM 76.0°F24.4°C 70.1°F21.2°C 82% 5.1 mph SSE8.2 kmh SSE 5.1 mph8.2 kmh 29.97 in1014.9 mb 0.00 in0.0 mm 0.00 in0.0 mm 0.00 in0.0 mm
07:15 AM 76.1°F24.5°C 70.2°F21.2°C 82% 0.1 mph S0.2 kmh S 4.1 mph6.6 kmh 29.97 in1014.9 mb 0.00 in0.0 mm 0.00 in0.0 mm 0.00 in0.0 mm
07:30 AM 76.2°F24.6°C 70.3°F21.3°C 82% 3.0 mph S4.8 kmh S 9.1 mph14.6 kmh 29.96 in1014.6 mb 0.00 in0.0 mm 0.00 in0.0 mm 0.00 in0.0 mm
07:45 AM 76.3°F24.6°C 70.4°F21.3°C 82% 10.1 mph S16.3 kmh S 10.1 mph16.3 kmh 29.96 in1014.6 mb 0.00 in0.0 mm 0.00 in0.0 mm 0.00 in0.0 mm
08:00 AM 76.3°F24.6°C 70.4°F21.3°C 82% 4.1 mph SW6.6 kmh SW 6.1 mph9.8 kmh 29.96 in1014.6 mb 0.00 in0.0 mm 0.00 in0.0 mm 0.00 in0.0 mm
08:15 AM 77.0°F25.0°C 70.7°F21.5°C 81% 2.0 mph SE3.2 kmh SE 9.1 mph14.6 kmh 29.95 in1014.2 mb 0.00 in0.0 mm 0.00 in0.0 mm 0.00 in0.0 mm
08:30 AM 78.1°F25.6°C 71.1°F21.7°C 79% 5.1 mph S8.2 kmh S 15.2 mph24.5 kmh 29.96 in1014.6 mb 0.00 in0.0 mm 0.00 in0.0 mm 0.00 in0.0 mm
08:45 AM 79.2°F26.2°C 71.8°F22.1°C 78% 6.1 mph S9.8 kmh S 7.1 mph11.4 kmh 29.96 in1014.6 mb 0.00 in0.0 mm 0.00 in0.0 mm 0.00 in0.0 mm
09:00 AM 80.8°F27.1°C 71.8°F22.1°C 74% 3.0 mph S4.8 kmh S 11.2 mph18.0 kmh 29.96 in1014.6 mb 0.00 in0.0 mm 0.00 in0.0 mm 0.00 in0.0 mm
09:15 AM 81.7°F27.6°C 72.2°F22.3°C 73% 1.0 mph S1.6 kmh S 7.1 mph11.4 kmh 29.95 in1014.2 mb 0.00 in0.0 mm 0.00 in0.0 mm 0.00 in0.0 mm
09:30 AM 81.8°F27.7°C 71.9°F22.2°C 72% 1.0 mph S1.6 kmh S 6.1 mph9.8 kmh 29.95 in1014.2 mb 0.00 in0.0 mm 0.00 in0.0 mm 0.00 in0.0 mm
09:45 AM 81.1°F27.3°C 72.0°F22.2°C 74% 5.1 mph S8.2 kmh S 10.1 mph16.3 kmh 29.95 in1014.2 mb 0.00 in0.0 mm 0.00 in0.0 mm 0.00 in0.0 mm
10:00 AM 81.2°F27.3°C 71.7°F22.1°C 73% 4.1 mph S6.6 kmh S 7.1 mph11.4 kmh 29.95 in1014.2 mb 0.00 in0.0 mm 0.00 in0.0 mm 0.00 in0.0 mm
10:15 AM 82.0°F27.8°C 72.1°F22.3°C 72% 3.0 mph SW4.8 kmh SW 11.2 mph18.0 kmh 29.95 in1014.2 mb 0.00 in0.0 mm 0.00 in0.0 mm 0.00 in0.0 mm
10:30 AM 83.0°F28.3°C 73.5°F23.1°C 73% 1.0 mph SSW1.6 kmh SSW 4.1 mph6.6 kmh 29.95 in1014.2 mb 0.00 in0.0 mm 0.00 in0.0 mm 0.00 in0.0 mm
10:45 AM 82.2°F27.9°C 71.9°F22.2°C 71% 8.1 mph S13.0 kmh S 9.1 mph14.6 kmh 29.96 in1014.6 mb 0.00 in0.0 mm 0.00 in0.0 mm 0.00 in0.0 mm
11:00 AM 82.3°F27.9°C 72.0°F22.2°C 71% 6.1 mph SW9.8 kmh SW 14.2 mph22.9 kmh 29.96 in1014.6 mb 0.00 in0.0 mm 0.00 in0.0 mm 0.00 in0.0 mm
11:15 AM 82.9°F28.3°C 72.6°F22.6°C 71% 0.1 mph SSW0.2 kmh SSW 11.2 mph18.0 kmh 29.96 in1014.6 mb 0.00 in0.0 mm 0.00 in0.0 mm 0.00 in0.0 mm
11:30 AM 83.2°F28.4°C 72.0°F22.2°C 69% 3.0 mph SSW4.8 kmh SSW 12.2 mph19.6 kmh 29.95 in1014.2 mb 0.00 in0.0 mm 0.00 in0.0 mm 0.00 in0.0 mm
11:45 AM 83.8°F28.8°C 72.1°F22.3°C 68% 2.0 mph SSW3.2 kmh SSW 15.2 mph24.5 kmh 29.96 in1014.6 mb 0.00 in0.0 mm 0.00 in0.0 mm 0.00 in0.0 mm
12:00 PM 84.9°F29.4°C 74.1°F23.4°C 70% 3.0 mph SSE4.8 kmh SSE 11.2 mph18.0 kmh 29.95 in1014.2 mb 0.00 in0.0 mm 0.00 in0.0 mm 0.00 in0.0 mm
12:15 PM 85.1°F29.5°C 72.5°F22.5°C 66% 5.1 mph S8.2 kmh S 6.1 mph9.8 kmh 29.94 in1013.9 mb 0.00 in0.0 mm 0.00 in0.0 mm 0.00 in0.0 mm
12:30 PM 85.7°F29.8°C 73.5°F23.1°C 67% 1.0 mph SSW1.6 kmh SSW 6.1 mph9.8 kmh 29.95 in1014.2 mb 0.00 in0.0 mm 0.00 in0.0 mm 0.00 in0.0 mm
12:45 PM 87.3°F30.7°C 73.7°F23.2°C 64% 4.1 mph SSW6.6 kmh SSW 15.2 mph24.5 kmh 29.95 in1014.2 mb 0.00 in0.0 mm 0.00 in0.0 mm 0.00 in0.0 mm
01:00 PM 87.1°F30.6°C 74.0°F23.3°C 65% 6.1 mph S9.8 kmh S 13.2 mph21.2 kmh 29.94 in1013.9 mb 0.00 in0.0 mm 0.00 in0.0 mm 0.00 in0.0 mm
01:15 PM 89.0°F31.7°C 73.9°F23.3°C 61% 4.1 mph S6.6 kmh S 6.1 mph9.8 kmh 29.94 in1013.9 mb 0.00 in0.0 mm 0.00 in0.0 mm 0.00 in0.0 mm
01:30 PM 88.6°F31.4°C 74.0°F23.3°C 62% 9.1 mph SSW14.6 kmh SSW 13.2 mph21.2 kmh 29.94 in1013.9 mb 0.00 in0.0 mm 0.00 in0.0 mm 0.00 in0.0 mm
01:45 PM 88.0°F31.1°C 72.9°F22.7°C 61% 0.1 mph S0.2 kmh S 12.2 mph19.6 kmh 29.93 in1013.5 mb 0.00 in0.0 mm 0.00 in0.0 mm 0.00 in0.0 mm
02:00 PM 89.7°F32.1°C 74.4°F23.6°C 61% 6.1 mph SSW9.8 kmh SSW 6.1 mph9.8 kmh 29.93 in1013.5 mb 0.00 in0.0 mm 0.00 in0.0 mm 0.00 in0.0 mm
02:15 PM 89.7°F32.1°C 73.4°F23.0°C 59% 2.0 mph SSW3.2 kmh SSW 5.1 mph8.2 kmh 29.92 in1013.2 mb 0.00 in0.0 mm 0.00 in0.0 mm 0.00 in0.0 mm
02:30 PM 89.9°F32.2°C 73.1°F22.8°C 58% 6.1 mph S9.8 kmh S 13.2 mph21.2 kmh 29.91 in1012.9 mb 0.00 in0.0 mm 0.00 in0.0 mm 0.00 in0.0 mm
02:45 PM 89.6°F32.0°C 72.8°F22.7°C 58% 2.0 mph S3.2 kmh S 15.2 mph24.5 kmh 29.91 in1012.9 mb 0.00 in0.0 mm 0.00 in0.0 mm 0.00 in0.0 mm
03:00 PM 90.2°F32.3°C 73.4°F23.0°C 58% 0.1 mph SW0.2 kmh SW 8.1 mph13.0 kmh 29.90 in1012.5 mb 0.00 in0.0 mm 0.00 in0.0 mm 0.00 in0.0 mm
03:15 PM 89.9°F32.2°C 73.1°F22.8°C 58% 4.1 mph SSW6.6 kmh SSW 9.1 mph14.6 kmh 29.89 in1012.2 mb 0.00 in0.0 mm 0.00 in0.0 mm 0.00 in0.0 mm
03:30 PM 90.5°F32.5°C 74.2°F23.4°C 59% 5.1 mph S8.2 kmh S 5.1 mph8.2 kmh 29.89 in1012.2 mb 0.00 in0.0 mm 0.00 in0.0 mm 0.00 in0.0 mm
03:45 PM 91.1°F32.8°C 72.7°F22.6°C 55% 14.1 mph SSW22.7 kmh SSW 17.2 mph27.7 kmh 29.89 in1012.2 mb 0.00 in0.0 mm 0.00 in0.0 mm 0.00 in0.0 mm
04:00 PM 91.9°F33.3°C 73.9°F23.3°C 56% 13.1 mph SSW21.1 kmh SSW 13.2 mph21.2 kmh 29.88 in1011.9 mb 0.00 in0.0 mm 0.00 in0.0 mm 0.00 in0.0 mm
04:15 PM 91.7°F33.2°C 73.2°F22.9°C 55% 5.1 mph SSW8.2 kmh SSW 11.2 mph18.0 kmh 29.88 in1011.9 mb 0.00 in0.0 mm 0.00 in0.0 mm 0.00 in0.0 mm
04:30 PM 91.6°F33.1°C 73.7°F23.2°C 56% 3.0 mph WSW4.8 kmh WSW 7.1 mph11.4 kmh 29.88 in1011.9 mb 0.00 in0.0 mm 0.00 in0.0 mm 0.00 in0.0 mm
04:45 PM 91.2°F32.9°C 72.7°F22.6°C 55% 1.0 mph SSW1.6 kmh SSW 8.1 mph13.0 kmh 29.88 in1011.9 mb 0.00 in0.0 mm 0.00 in0.0 mm 0.00 in0.0 mm
05:00 PM 91.5°F33.1°C 72.5°F22.5°C 54% 4.1 mph SW6.6 kmh SW 12.2 mph19.6 kmh 29.88 in1011.9 mb 0.00 in0.0 mm 0.00 in0.0 mm 0.00 in0.0 mm
05:15 PM 91.1°F32.8°C 72.1°F22.3°C 54% 1.0 mph SW1.6 kmh SW 14.2 mph22.9 kmh 29.88 in1011.9 mb 0.00 in0.0 mm 0.00 in0.0 mm 0.00 in0.0 mm
05:30 PM 89.4°F31.9°C 72.2°F22.3°C 57% 4.1 mph SSW6.6 kmh SSW 9.1 mph14.6 kmh 29.89 in1012.2 mb 0.00 in0.0 mm 0.00 in0.0 mm 0.00 in0.0 mm
05:45 PM 89.0°F31.7°C 72.4°F22.4°C 58% 2.0 mph SSW3.2 kmh SSW 11.2 mph18.0 kmh 29.88 in1011.9 mb 0.00 in0.0 mm 0.00 in0.0 mm 0.00 in0.0 mm
06:00 PM 88.5°F31.4°C 72.4°F22.4°C 59% 3.0 mph S4.8 kmh S 7.1 mph11.4 kmh 29.88 in1011.9 mb 0.00 in0.0 mm 0.00 in0.0 mm 0.00 in0.0 mm
06:15 PM 88.9°F31.6°C 73.3°F22.9°C 60% 6.1 mph SSW9.8 kmh SSW 7.1 mph11.4 kmh 29.88 in1011.9 mb 0.00 in0.0 mm 0.00 in0.0 mm 0.00 in0.0 mm
06:30 PM 89.1°F31.7°C 74.0°F23.3°C 61% 7.1 mph S11.4 kmh S 7.1 mph11.4 kmh 29.88 in1011.9 mb 0.00 in0.0 mm 0.00 in0.0 mm 0.00 in0.0 mm
06:45 PM 88.5°F31.4°C 72.9°F22.7°C 60% 5.1 mph S8.2 kmh S 7.1 mph11.4 kmh 29.89 in1012.2 mb 0.00 in0.0 mm 0.00 in0.0 mm 0.00 in0.0 mm
07:00 PM 87.9°F31.1°C 72.3°F22.4°C 60% 10.1 mph S16.3 kmh S 14.2 mph22.9 kmh 29.89 in1012.2 mb 0.00 in0.0 mm 0.00 in0.0 mm 0.00 in0.0 mm
07:15 PM 87.5°F30.8°C 72.9°F22.7°C 62% 10.1 mph SSW16.3 kmh SSW 10.1 mph16.3 kmh 29.89 in1012.2 mb 0.00 in0.0 mm 0.00 in0.0 mm 0.00 in0.0 mm
07:30 PM 87.1°F30.6°C 73.0°F22.8°C 63% 2.0 mph SSW3.2 kmh SSW 7.1 mph11.4 kmh 29.90 in1012.5 mb 0.00 in0.0 mm 0.00 in0.0 mm 0.00 in0.0 mm
07:45 PM 86.5°F30.3°C 72.9°F22.7°C 64% 4.1 mph S6.6 kmh S 13.2 mph21.2 kmh 29.90 in1012.5 mb 0.00 in0.0 mm 0.00 in0.0 mm 0.00 in0.0 mm
08:00 PM 86.1°F30.1°C 73.0°F22.8°C 65% 6.1 mph SSW9.8 kmh SSW 8.1 mph13.0 kmh 29.90 in1012.5 mb 0.00 in0.0 mm 0.00 in0.0 mm 0.00 in0.0 mm
08:15 PM 85.5°F29.7°C 72.9°F22.7°C 66% 7.1 mph SSW11.4 kmh SSW 7.1 mph11.4 kmh 29.91 in1012.9 mb 0.00 in0.0 mm 0.00 in0.0 mm 0.00 in0.0 mm
08:30 PM 84.8°F29.3°C 72.7°F22.6°C 67% 2.0 mph S3.2 kmh S 9.1 mph14.6 kmh 29.92 in1013.2 mb 0.00 in0.0 mm 0.00 in0.0 mm 0.00 in0.0 mm
08:45 PM 84.4°F29.1°C 70.9°F21.6°C 64% 4.1 mph SW6.6 kmh SW 9.1 mph14.6 kmh 29.92 in1013.2 mb 0.00 in0.0 mm 0.00 in0.0 mm 0.00 in0.0 mm
09:00 PM 84.0°F28.9°C 70.1°F21.2°C 63% 5.1 mph SSW8.2 kmh SSW 7.1 mph11.4 kmh 29.93 in1013.5 mb 0.00 in0.0 mm 0.00 in0.0 mm 0.00 in0.0 mm
09:15 PM 83.3°F28.5°C 69.9°F21.1°C 64% 1.0 mph S1.6 kmh S 9.1 mph14.6 kmh 29.94 in1013.9 mb 0.00 in0.0 mm 0.00 in0.0 mm 0.00 in0.0 mm
09:30 PM 82.4°F28.0°C 69.5°F20.8°C 65% 7.1 mph S11.4 kmh S 12.2 mph19.6 kmh 29.95 in1014.2 mb 0.00 in0.0 mm 0.00 in0.0 mm 0.00 in0.0 mm
09:45 PM 81.6°F27.6°C 69.2°F20.7°C 66% 2.0 mph SSW3.2 kmh SSW 6.1 mph9.8 kmh 29.95 in1014.2 mb 0.00 in0.0 mm 0.00 in0.0 mm 0.00 in0.0 mm
10:00 PM 81.1°F27.3°C 69.6°F20.9°C 68% 2.0 mph S3.2 kmh S 12.2 mph19.6 kmh 29.96 in1014.6 mb 0.00 in0.0 mm 0.00 in0.0 mm 0.00 in0.0 mm
10:15 PM 80.6°F27.0°C 70.3°F21.3°C 71% 3.0 mph SSW4.8 kmh SSW 9.1 mph14.6 kmh 29.95 in1014.2 mb 0.00 in0.0 mm 0.00 in0.0 mm 0.00 in0.0 mm
10:30 PM 80.3°F26.8°C 70.9°F21.6°C 73% 5.1 mph S8.2 kmh S 7.1 mph11.4 kmh 29.96 in1014.6 mb 0.00 in0.0 mm 0.00 in0.0 mm 0.00 in0.0 mm
10:45 PM 80.1°F26.7°C 71.5°F21.9°C 75% 4.1 mph S6.6 kmh S 8.1 mph13.0 kmh 29.96 in1014.6 mb 0.00 in0.0 mm 0.00 in0.0 mm 0.00 in0.0 mm
11:00 PM 79.8°F26.6°C 71.6°F22.0°C 76% 4.1 mph S6.6 kmh S 7.1 mph11.4 kmh 29.97 in1014.9 mb 0.00 in0.0 mm 0.00 in0.0 mm 0.00 in0.0 mm
11:15 PM 79.5°F26.4°C 72.0°F22.2°C 78% 4.1 mph S6.6 kmh S 10.1 mph16.3 kmh 29.97 in1014.9 mb 0.00 in0.0 mm 0.00 in0.0 mm 0.00 in0.0 mm
11:30 PM 79.3°F26.3°C 72.2°F22.3°C 79% 6.1 mph SSW9.8 kmh SSW 7.1 mph11.4 kmh 29.97 in1014.9 mb 0.00 in0.0 mm 0.00 in0.0 mm 0.00 in0.0 mm
11:45 PM 79.1°F26.2°C 72.4°F22.4°C 80% 4.1 mph SSW6.6 kmh SSW 10.1 mph16.3 kmh 29.96 in1014.6 mb 0.00 in0.0 mm 0.00 in0.0 mm 0.00 in0.0 mm